createdAt,value
2019-02-23T00:00:46.664Z,99.99
2019-02-23T00:01:46.661Z,99.99
2019-02-23T00:02:46.611Z,99.99
2019-02-23T00:03:46.622Z,99.99
2019-02-23T00:04:46.581Z,99.99
2019-02-23T00:05:46.592Z,99.99
2019-02-23T00:06:46.538Z,99.99
2019-02-23T00:07:46.530Z,99.99
2019-02-23T00:08:46.530Z,99.99
2019-02-23T00:09:46.494Z,99.99
2019-02-23T00:10:46.460Z,99.99
2019-02-23T00:11:46.458Z,99.99
2019-02-23T00:12:46.434Z,99.99
2019-02-23T00:13:46.449Z,99.99
2019-02-23T00:14:46.394Z,99.99
2019-02-23T00:15:46.364Z,99.99
2019-02-23T00:16:46.489Z,99.99
2019-02-23T00:17:46.331Z,99.99
2019-02-23T00:18:46.307Z,99.99
2019-02-23T00:19:46.294Z,99.99
2019-02-23T00:20:46.277Z,99.99
2019-02-23T00:21:46.273Z,99.99
2019-02-23T00:22:46.237Z,99.99
2019-02-23T00:23:46.228Z,99.99
2019-02-23T00:24:46.198Z,99.99
2019-02-23T00:25:46.227Z,99.99
2019-02-23T00:26:46.170Z,99.99
2019-02-23T00:27:46.151Z,99.99
2019-02-23T00:28:46.163Z,99.99
2019-02-23T00:29:46.123Z,99.99
2019-02-23T00:30:46.092Z,99.99
2019-02-23T00:31:46.074Z,99.99
2019-02-23T00:32:46.056Z,99.99
2019-02-23T00:33:46.066Z,99.99
2019-02-23T00:34:46.013Z,99.99
2019-02-23T00:35:45.994Z,99.99
2019-02-23T00:36:45.971Z,99.99
2019-02-23T00:37:45.988Z,99.99
2019-02-23T00:38:45.986Z,99.99
2019-02-23T00:39:46.051Z,99.99
2019-02-23T00:40:45.902Z,99.99
2019-02-23T00:41:45.885Z,99.99
2019-02-23T00:42:45.867Z,99.99
2019-02-23T00:43:45.836Z,99.99
2019-02-23T00:44:45.855Z,99.99
2019-02-23T00:45:45.838Z,99.99
2019-02-23T00:46:45.785Z,99.99
2019-02-23T00:47:45.778Z,99.99
2019-02-23T00:48:45.755Z,99.99
2019-02-23T00:49:45.727Z,99.99
2019-02-23T00:50:45.848Z,99.99
2019-02-23T00:51:45.708Z,99.99
2019-02-23T00:52:45.665Z,99.99
2019-02-23T00:53:45.661Z,99.99
2019-02-23T00:54:45.636Z,99.99
2019-02-23T00:55:45.624Z,99.99
2019-02-23T00:56:45.635Z,99.99
2019-02-23T00:57:45.571Z,99.99
2019-02-23T00:58:45.555Z,99.99
2019-02-23T00:59:45.544Z,99.99
2019-02-23T01:00:45.542Z,99.99
2019-02-23T01:01:45.528Z,99.99
2019-02-23T01:02:45.491Z,99.99
2019-02-23T01:03:45.468Z,99.99
2019-02-23T01:04:45.455Z,99.99
2019-02-23T01:05:45.459Z,99.99
2019-02-23T01:06:45.429Z,99.99
2019-02-23T01:07:45.393Z,99.99
2019-02-23T01:08:45.371Z,99.99
2019-02-23T01:09:45.354Z,99.99
2019-02-23T01:10:45.336Z,99.99
2019-02-23T01:11:45.351Z,99.99
2019-02-23T01:12:45.501Z,99.99
2019-02-23T01:13:45.284Z,99.99
2019-02-23T01:14:45.263Z,99.99
2019-02-23T01:15:45.242Z,99.99
2019-02-23T01:16:45.227Z,99.99
2019-02-23T01:17:45.408Z,99.99
2019-02-23T01:18:45.248Z,99.99
2019-02-23T01:19:47.972Z,99.99
2019-02-23T01:20:45.152Z,99.99
2019-02-23T01:21:45.132Z,99.99
2019-02-23T01:22:45.101Z,99.99
2019-02-23T01:23:45.102Z,99.99
2019-02-23T01:24:45.089Z,99.99
2019-02-23T01:25:45.045Z,99.99
2019-02-23T01:26:45.070Z,99.99
2019-02-23T01:27:45.021Z,99.99
2019-02-23T01:28:44.996Z,99.99
2019-02-23T01:29:44.992Z,99.99
2019-02-23T01:30:44.953Z,99.99
2019-02-23T01:31:44.949Z,99.99
2019-02-23T01:32:44.985Z,99.99
2019-02-23T01:33:44.902Z,99.99
2019-02-23T01:34:44.884Z,99.99
2019-02-23T01:35:44.865Z,99.99
2019-02-23T01:36:44.840Z,99.99
2019-02-23T01:37:44.823Z,99.99
2019-02-23T01:38:44.827Z,99.99
2019-02-23T01:39:44.788Z,99.99
2019-02-23T01:40:44.779Z,99.99
2019-02-23T01:41:44.777Z,99.99
2019-02-23T01:42:44.736Z,99.99
2019-02-23T01:43:44.742Z,99.99
2019-02-23T01:44:44.707Z,99.99
2019-02-23T01:45:44.678Z,99.99
2019-02-23T01:46:44.651Z,99.99
2019-02-23T01:47:44.628Z,99.99
2019-02-23T01:48:44.683Z,99.99
2019-02-23T01:49:44.610Z,99.99
2019-02-23T01:50:44.579Z,99.99
2019-02-23T01:51:44.566Z,99.99
2019-02-23T01:52:44.543Z,99.99
2019-02-23T01:53:44.521Z,99.99
2019-02-23T01:54:44.510Z,99.99
2019-02-23T01:55:44.476Z,99.99
2019-02-23T01:56:44.470Z,99.99
2019-02-23T01:57:44.449Z,99.99
2019-02-23T01:58:44.477Z,99.99
2019-02-23T01:59:44.491Z,99.99
2019-02-23T02:00:44.380Z,99.99
2019-02-23T02:01:44.385Z,99.99
2019-02-23T02:02:44.344Z,99.99
2019-02-23T02:03:44.328Z,99.99
2019-02-23T02:04:44.321Z,99.99
2019-02-23T02:05:44.320Z,99.99
2019-02-23T02:06:44.284Z,99.99
2019-02-23T02:07:44.259Z,99.99
2019-02-23T02:08:44.241Z,99.99
2019-02-23T02:09:44.219Z,99.99
2019-02-23T02:10:44.225Z,99.99
2019-02-23T02:11:44.177Z,99.99
2019-02-23T02:12:44.162Z,99.99
2019-02-23T02:13:44.137Z,99.99
2019-02-23T02:14:44.116Z,99.99
2019-02-23T02:15:44.189Z,99.99
2019-02-23T02:16:44.089Z,99.99
2019-02-23T02:17:44.146Z,99.99
2019-02-23T02:18:44.056Z,99.99
2019-02-23T02:19:44.088Z,99.99
2019-02-23T02:20:44.009Z,99.99
2019-02-23T02:21:44.129Z,99.99
2019-02-23T02:22:43.969Z,99.99
2019-02-23T02:23:43.948Z,99.99
2019-02-23T02:24:43.925Z,99.99
2019-02-23T02:25:43.923Z,99.99
2019-02-23T02:26:43.883Z,99.99
2019-02-23T02:27:43.869Z,99.99
2019-02-23T02:28:43.854Z,99.99
2019-02-23T02:29:44.090Z,99.99
2019-02-23T02:30:43.807Z,99.99
2019-02-23T02:31:43.790Z,99.99
2019-02-23T02:32:43.796Z,99.99
2019-02-23T02:33:43.752Z,99.99
2019-02-23T02:34:43.727Z,99.99
2019-02-23T02:35:43.718Z,99.99
2019-02-23T02:36:43.697Z,99.99
2019-02-23T02:37:43.689Z,99.99
2019-02-23T02:38:43.679Z,99.99
2019-02-23T02:39:43.639Z,99.99
2019-02-23T02:40:43.626Z,99.99
2019-02-23T02:41:43.602Z,99.99
2019-02-23T02:42:43.573Z,99.99
2019-02-23T02:43:43.692Z,99.99
2019-02-23T02:44:43.538Z,99.99
2019-02-23T02:45:43.522Z,99.99
2019-02-23T02:46:43.502Z,99.99
2019-02-23T02:47:43.490Z,99.99
2019-02-23T02:48:43.467Z,99.99
2019-02-23T02:49:43.438Z,99.99
2019-02-23T02:50:43.443Z,99.99
2019-02-23T02:51:43.396Z,99.99
2019-02-23T02:52:43.377Z,99.99
2019-02-23T02:53:43.365Z,99.99
2019-02-23T02:54:43.337Z,99.99
2019-02-23T02:55:43.348Z,99.99
2019-02-23T02:56:43.371Z,99.99
2019-02-23T02:57:43.292Z,99.99
2019-02-23T02:58:43.270Z,99.99
2019-02-23T02:59:43.243Z,99.99
2019-02-23T03:00:43.227Z,99.99
2019-02-23T03:01:43.211Z,99.99
2019-02-23T03:02:43.229Z,99.99
2019-02-23T03:03:43.171Z,99.99
2019-02-23T03:04:43.139Z,99.99
2019-02-23T03:05:43.121Z,99.99
2019-02-23T03:06:43.113Z,99.99
2019-02-23T03:07:43.125Z,99.99
2019-02-23T03:08:43.078Z,99.99
2019-02-23T03:09:43.053Z,99.99
2019-02-23T03:10:43.037Z,99.99
2019-02-23T03:11:43.010Z,99.99
2019-02-23T03:12:43.132Z,99.99
2019-02-23T03:13:42.978Z,99.99
2019-02-23T03:14:42.958Z,99.99
2019-02-23T03:15:42.936Z,99.99
2019-02-23T03:16:42.915Z,99.99
2019-02-23T03:17:42.890Z,99.99
2019-02-23T03:18:42.905Z,99.99
2019-02-23T03:19:42.850Z,99.99
2019-02-23T03:20:42.829Z,99.99
2019-02-23T03:21:42.822Z,99.99
2019-02-23T03:22:42.795Z,99.99
2019-02-23T03:23:42.822Z,99.99
2019-02-23T03:24:42.745Z,99.99
2019-02-23T03:25:42.741Z,99.99
2019-02-23T03:26:42.704Z,99.99
2019-02-23T03:27:42.696Z,99.99
2019-02-23T03:28:42.665Z,99.99
2019-02-23T03:29:42.743Z,99.99
2019-02-23T03:30:42.631Z,99.99
2019-02-23T03:31:42.619Z,99.99
2019-02-23T03:32:42.583Z,99.99
2019-02-23T03:33:42.586Z,99.99
2019-02-23T03:34:42.563Z,99.99
2019-02-23T03:35:42.583Z,99.99
2019-02-23T03:36:42.513Z,99.99
2019-02-23T03:37:42.485Z,99.99
2019-02-23T03:38:42.478Z,99.99
2019-02-23T03:39:42.446Z,99.99
2019-02-23T03:40:42.431Z,99.99
2019-02-23T03:41:42.451Z,99.99
2019-02-23T03:42:42.383Z,99.99
2019-02-23T03:43:42.380Z,99.99
2019-02-23T03:44:42.354Z,99.99
2019-02-23T03:45:42.353Z,99.99
2019-02-23T03:46:42.323Z,99.99
2019-02-23T03:47:42.282Z,99.99
2019-02-23T03:48:42.271Z,99.99
2019-02-23T03:49:42.245Z,99.99
2019-02-23T03:50:48.902Z,99.99
2019-02-23T03:51:42.219Z,99.99
2019-02-23T03:52:42.184Z,99.99
2019-02-23T03:53:42.168Z,99.99
2019-02-23T03:54:42.150Z,99.99
2019-02-23T03:55:42.139Z,99.99
2019-02-23T03:56:42.133Z,99.99
2019-02-23T03:57:42.159Z,99.99
2019-02-23T03:58:42.068Z,99.99
2019-02-23T03:59:42.046Z,99.99
2019-02-23T04:00:42.041Z,99.99
2019-02-23T04:01:42.019Z,99.99
2019-02-23T04:02:41.996Z,99.99
2019-02-23T04:03:41.998Z,99.99
2019-02-23T04:04:41.963Z,99.99
2019-02-23T04:05:41.929Z,99.99
2019-02-23T04:06:41.918Z,99.99
2019-02-23T04:07:41.927Z,99.99
2019-02-23T04:08:41.881Z,99.99
2019-02-23T04:09:41.853Z,99.99
2019-02-23T04:10:41.840Z,99.99
2019-02-23T04:11:41.819Z,99.99
2019-02-23T04:12:41.838Z,99.99
2019-02-23T04:13:41.773Z,99.99
2019-02-23T04:14:41.750Z,99.99
2019-02-23T04:15:41.735Z,99.99
2019-02-23T04:16:41.727Z,99.99
2019-02-23T04:17:41.705Z,99.99
2019-02-23T04:18:41.714Z,99.99
2019-02-23T04:19:41.653Z,99.99
2019-02-23T04:20:41.652Z,99.99
2019-02-23T04:21:41.620Z,99.99
2019-02-23T04:22:41.603Z,99.99
2019-02-23T04:23:41.572Z,99.99
2019-02-23T04:24:41.560Z,99.99
2019-02-23T04:25:41.530Z,99.99
2019-02-23T04:26:41.522Z,99.99
2019-02-23T04:27:41.503Z,99.99
2019-02-23T04:28:41.484Z,99.99
2019-02-23T04:29:41.600Z,99.99
2019-02-23T04:30:41.475Z,99.99
2019-02-23T04:31:41.420Z,99.99
2019-02-23T04:32:41.396Z,99.99
2019-02-23T04:33:41.388Z,99.99
2019-02-23T04:34:41.352Z,99.99
2019-02-23T04:35:41.374Z,99.99
2019-02-23T04:36:41.462Z,99.99
2019-02-23T04:37:41.304Z,99.99
2019-02-23T04:38:41.278Z,99.99
2019-02-23T04:39:41.251Z,99.99
2019-02-23T04:40:41.243Z,99.99
2019-02-23T04:41:41.217Z,99.99
2019-02-23T04:42:41.337Z,99.99
2019-02-23T04:43:44.090Z,99.99
2019-02-23T04:44:41.156Z,99.99
2019-02-23T04:45:41.139Z,99.99
2019-02-23T04:46:41.121Z,99.99
2019-02-23T04:47:41.101Z,99.99
2019-02-23T04:48:41.097Z,99.99
2019-02-23T04:49:41.058Z,99.99
2019-02-23T04:50:41.029Z,99.99
2019-02-23T04:51:41.014Z,99.99
2019-02-23T04:52:40.988Z,99.99
2019-02-23T04:53:41.000Z,99.99
2019-02-23T04:54:40.977Z,99.99
2019-02-23T04:55:40.926Z,99.99
2019-02-23T04:56:40.909Z,99.99
2019-02-23T04:57:40.886Z,99.99
2019-02-23T04:58:40.866Z,99.99
2019-02-23T04:59:40.941Z,99.99
2019-02-23T05:00:40.857Z,99.99
2019-02-23T05:01:40.804Z,99.99
2019-02-23T05:02:40.782Z,99.99
2019-02-23T05:03:40.783Z,99.99
2019-02-23T05:04:40.772Z,99.99
2019-02-23T05:05:40.861Z,99.99
2019-02-23T05:06:40.707Z,99.99
2019-02-23T05:07:40.683Z,99.99
2019-02-23T05:08:40.675Z,99.99
2019-02-23T05:09:40.670Z,99.99
2019-02-23T05:10:40.624Z,99.99
2019-02-23T05:11:40.624Z,99.99
2019-02-23T05:12:40.611Z,99.99
2019-02-23T05:13:40.566Z,99.99
2019-02-23T05:14:40.563Z,99.99
2019-02-23T05:15:40.550Z,99.99
2019-02-23T05:16:40.516Z,99.99
2019-02-23T05:17:40.484Z,99.99
2019-02-23T05:18:40.479Z,99.99
2019-02-23T05:19:40.440Z,99.99
2019-02-23T05:20:40.492Z,99.99
2019-02-23T05:21:40.403Z,99.99
2019-02-23T05:22:40.386Z,99.99
2019-02-23T05:23:40.378Z,99.99
2019-02-23T05:24:40.351Z,99.99
2019-02-23T05:25:40.326Z,99.99
2019-02-23T05:26:40.306Z,99.99
2019-02-23T05:27:40.313Z,99.99
2019-02-23T05:28:40.261Z,99.99
2019-02-23T05:29:40.500Z,99.99
2019-02-23T05:30:40.232Z,99.99
2019-02-23T05:31:40.209Z,99.99
2019-02-23T05:32:40.219Z,99.99
2019-02-23T05:33:40.173Z,99.99
2019-02-23T05:34:40.159Z,99.99
2019-02-23T05:35:40.129Z,99.99
2019-02-23T05:36:40.095Z,99.99
2019-02-23T05:37:40.120Z,99.99
2019-02-23T05:38:40.095Z,99.99
2019-02-23T05:39:40.039Z,99.99
2019-02-23T05:40:40.059Z,99.99
2019-02-23T05:41:39.997Z,99.99
2019-02-23T05:42:39.992Z,99.99
2019-02-23T05:43:39.988Z,99.99
2019-02-23T05:44:40.012Z,99.99
2019-02-23T05:45:39.965Z,99.99
2019-02-23T05:46:39.898Z,99.99
2019-02-23T05:47:39.876Z,99.99
2019-02-23T05:48:39.861Z,99.99
2019-02-23T05:49:39.849Z,99.99
2019-02-23T05:50:39.841Z,99.99
2019-02-23T05:51:39.808Z,99.99
2019-02-23T05:52:39.835Z,99.99
2019-02-23T05:53:39.763Z,99.99
2019-02-23T05:54:39.730Z,99.99
2019-02-23T05:55:39.730Z,99.99
2019-02-23T05:56:39.709Z,99.99
2019-02-23T05:57:39.670Z,99.99
2019-02-23T05:58:39.693Z,99.99
2019-02-23T05:59:39.803Z,99.99
2019-02-23T06:00:39.610Z,99.99
2019-02-23T06:01:39.604Z,99.99
2019-02-23T06:02:39.602Z,99.99
2019-02-23T06:03:39.558Z,99.99
2019-02-23T06:04:39.531Z,99.99
2019-02-23T06:05:39.517Z,99.99
2019-02-23T06:06:39.499Z,99.99
2019-02-23T06:07:39.506Z,99.99
2019-02-23T06:08:39.459Z,99.99
2019-02-23T06:09:39.427Z,99.99
2019-02-23T06:10:39.427Z,99.99
2019-02-23T06:11:39.401Z,99.99
2019-02-23T06:12:39.365Z,99.99
2019-02-23T06:13:39.357Z,99.99
2019-02-23T06:14:39.330Z,99.99
2019-02-23T06:15:39.300Z,99.99
2019-02-23T06:16:39.317Z,99.99
2019-02-23T06:17:39.278Z,99.99
2019-02-23T06:18:39.287Z,99.99
2019-02-23T06:19:39.230Z,99.99
2019-02-23T06:20:39.206Z,99.99
2019-02-23T06:21:52.293Z,99.99
2019-02-23T06:22:39.160Z,99.99
2019-02-23T06:23:39.175Z,99.99
2019-02-23T06:24:39.165Z,99.99
2019-02-23T06:25:39.099Z,99.99
2019-02-23T06:26:39.082Z,99.99
2019-02-23T06:27:39.071Z,99.99
2019-02-23T06:28:39.052Z,99.99
2019-02-23T06:29:39.054Z,99.99
2019-02-23T06:30:39.013Z,99.99
2019-02-23T06:31:39.018Z,99.99
2019-02-23T06:32:38.968Z,99.99
2019-02-23T06:33:38.938Z,99.99
2019-02-23T06:34:38.924Z,99.99
2019-02-23T06:35:38.924Z,99.99
2019-02-23T06:36:38.887Z,99.99
2019-02-23T06:37:38.855Z,99.99
2019-02-23T06:38:38.838Z,99.99
2019-02-23T06:39:38.813Z,99.99
2019-02-23T06:40:38.862Z,99.99
2019-02-23T06:41:38.772Z,99.99
2019-02-23T06:42:38.769Z,99.99
2019-02-23T06:43:38.742Z,99.99
2019-02-23T06:44:38.706Z,99.99
2019-02-23T06:45:38.697Z,99.99
2019-02-23T06:46:38.678Z,99.99
2019-02-23T06:47:38.805Z,99.99
2019-02-23T06:48:38.629Z,99.99
2019-02-23T06:49:38.622Z,99.99
2019-02-23T06:50:38.602Z,99.99
2019-02-23T06:51:38.565Z,99.99
2019-02-23T06:52:38.545Z,99.99
2019-02-23T06:53:38.540Z,99.99
2019-02-23T06:54:38.518Z,99.99
2019-02-23T06:55:38.501Z,99.99
2019-02-23T06:56:38.476Z,99.99
2019-02-23T06:57:38.443Z,99.99
2019-02-23T06:58:38.455Z,99.99
2019-02-23T06:59:38.410Z,99.99
2019-02-23T07:00:38.393Z,99.99
2019-02-23T07:01:38.363Z,99.99
2019-02-23T07:02:38.380Z,99.99
2019-02-23T07:03:38.335Z,99.99
2019-02-23T07:04:38.310Z,99.99
2019-02-23T07:05:38.293Z,99.99
2019-02-23T07:06:38.269Z,99.99
2019-02-23T07:07:38.275Z,99.99
2019-02-23T07:08:38.235Z,99.99
2019-02-23T07:09:38.204Z,99.99
2019-02-23T07:10:38.217Z,99.99
2019-02-23T07:11:38.157Z,99.99
2019-02-23T07:12:38.133Z,99.99
2019-02-23T07:13:38.123Z,99.99
2019-02-23T07:14:38.108Z,99.99
2019-02-23T07:15:38.119Z,99.99
2019-02-23T07:16:38.063Z,99.99
2019-02-23T07:17:38.036Z,99.80
2019-02-23T07:18:38.018Z,99.99
2019-02-23T07:19:37.989Z,99.99
2019-02-23T07:20:44.183Z,99.99
2019-02-23T07:21:37.960Z,99.99
2019-02-23T07:22:37.942Z,98.86
2019-02-23T07:23:37.925Z,98.96
2019-02-23T07:24:37.900Z,98.67
2019-02-23T07:25:37.867Z,99.90
2019-02-23T07:26:37.881Z,99.99
2019-02-23T07:27:37.860Z,99.99
2019-02-23T07:28:37.816Z,99.99
2019-02-23T07:29:37.998Z,99.99
2019-02-23T07:30:37.764Z,99.99
2019-02-23T07:31:37.755Z,99.99
2019-02-23T07:32:37.740Z,99.99
2019-02-23T07:33:37.718Z,98.86
2019-02-23T07:34:37.744Z,99.52
2019-02-23T07:35:37.667Z,99.43
2019-02-23T07:36:37.747Z,98.58
2019-02-23T07:37:37.634Z,98.58
2019-02-23T07:38:37.616Z,97.63
2019-02-23T07:39:37.596Z,98.01
2019-02-23T07:40:37.578Z,98.67
2019-02-23T07:41:37.543Z,97.72
2019-02-23T07:42:37.564Z,98.01
2019-02-23T07:43:37.518Z,97.25
2019-02-23T07:44:37.487Z,97.63
2019-02-23T07:45:37.462Z,97.44
2019-02-23T07:46:37.448Z,97.63
2019-02-23T07:47:37.436Z,97.91
2019-02-23T07:48:37.430Z,98.86
2019-02-23T07:49:37.388Z,98.58
2019-02-23T07:50:37.364Z,98.39
2019-02-23T07:51:37.338Z,97.63
2019-02-23T07:52:37.323Z,97.06
2019-02-23T07:53:37.361Z,97.53
2019-02-23T07:54:37.291Z,98.67
2019-02-23T07:55:37.269Z,99.33
2019-02-23T07:56:37.237Z,99.99
2019-02-23T07:57:37.219Z,99.62
2019-02-23T07:58:37.213Z,99.99
2019-02-23T07:59:37.211Z,99.99
2019-02-23T08:00:37.170Z,99.99
2019-02-23T08:01:37.145Z,99.99
2019-02-23T08:02:37.158Z,99.99
2019-02-23T08:03:37.116Z,99.99
2019-02-23T08:04:37.107Z,99.99
2019-02-23T08:05:37.070Z,99.99
2019-02-23T08:06:37.033Z,99.19
2019-02-23T08:07:39.695Z,97.02
2019-02-23T08:08:37.006Z,96.54
2019-02-23T08:09:37.019Z,97.39
2019-02-23T08:10:36.998Z,97.30
2019-02-23T08:11:36.952Z,96.83
2019-02-23T08:12:36.950Z,96.92
2019-02-23T08:13:36.911Z,95.03
2019-02-23T08:14:36.875Z,95.59
2019-02-23T08:15:36.861Z,95.69
2019-02-23T08:16:36.852Z,95.50
2019-02-23T08:17:36.817Z,95.03
2019-02-23T08:18:36.799Z,95.31
2019-02-23T08:19:36.777Z,95.03
2019-02-23T08:20:36.787Z,93.99
2019-02-23T08:21:36.752Z,94.08
2019-02-23T08:22:37.601Z,93.99
2019-02-23T08:23:36.704Z,94.27
2019-02-23T08:24:36.692Z,94.65
2019-02-23T08:25:36.667Z,94.08
2019-02-23T08:26:36.676Z,93.89
2019-02-23T08:27:36.626Z,93.61
2019-02-23T08:28:36.600Z,95.21
2019-02-23T08:29:36.583Z,95.59
2019-02-23T08:30:36.560Z,94.74
2019-02-23T08:31:36.576Z,94.74
2019-02-23T08:32:36.593Z,94.46
2019-02-23T08:33:36.507Z,93.70
2019-02-23T08:34:36.473Z,93.51
2019-02-23T08:35:36.462Z,92.76
2019-02-23T08:36:36.440Z,93.99
2019-02-23T08:37:36.503Z,93.89
2019-02-23T08:38:36.533Z,94.27
2019-02-23T08:39:36.386Z,94.08
2019-02-23T08:40:36.377Z,94.18
2019-02-23T08:41:36.335Z,93.42
2019-02-23T08:42:36.396Z,92.57
2019-02-23T08:43:36.312Z,92.10
2019-02-23T08:44:36.290Z,92.47
2019-02-23T08:45:36.264Z,92.19
2019-02-23T08:46:36.256Z,92.19
2019-02-23T08:47:36.265Z,92.38
2019-02-23T08:48:36.226Z,92.19
2019-02-23T08:49:36.191Z,92.52
2019-02-23T08:50:36.167Z,93.18
2019-02-23T08:51:36.150Z,93.46
2019-02-23T08:52:36.131Z,92.80
2019-02-23T08:53:36.132Z,92.71
2019-02-23T08:54:36.084Z,93.65
2019-02-23T08:55:36.133Z,94.32
2019-02-23T08:56:36.067Z,93.94
2019-02-23T08:57:36.018Z,92.71
2019-02-23T08:58:36.008Z,91.00
2019-02-23T08:59:36.015Z,91.00
2019-02-23T09:00:36.005Z,90.53
2019-02-23T09:01:35.942Z,91.00
2019-02-23T09:02:35.940Z,91.95
2019-02-23T09:03:35.901Z,91.86
2019-02-23T09:04:35.884Z,91.38
2019-02-23T09:05:35.894Z,90.53
2019-02-23T09:06:35.853Z,90.67
2019-02-23T09:07:35.883Z,90.95
2019-02-23T09:08:35.808Z,91.33
2019-02-23T09:09:35.792Z,91.62
2019-02-23T09:10:35.775Z,91.52
2019-02-23T09:11:35.760Z,90.95
2019-02-23T09:12:35.726Z,91.05
2019-02-23T09:13:35.708Z,91.14
2019-02-23T09:14:35.691Z,88.96
2019-02-23T09:15:35.673Z,88.21
2019-02-23T09:16:35.716Z,87.45
2019-02-23T09:17:35.644Z,87.54
2019-02-23T09:18:35.610Z,88.02
2019-02-23T09:19:35.591Z,88.02
2019-02-23T09:20:35.582Z,88.02
2019-02-23T09:21:35.563Z,87.83
2019-02-23T09:22:35.579Z,88.21
2019-02-23T09:23:35.531Z,87.64
2019-02-23T09:24:35.506Z,87.07
2019-02-23T09:25:35.478Z,86.60
2019-02-23T09:26:35.463Z,85.74
2019-02-23T09:27:35.510Z,86.12
2019-02-23T09:28:35.419Z,87.83
2019-02-23T09:29:35.414Z,88.73
2019-02-23T09:30:35.386Z,88.16
2019-02-23T09:31:35.366Z,88.25
2019-02-23T09:32:35.339Z,86.93
2019-02-23T09:33:35.405Z,86.93
2019-02-23T09:34:35.320Z,86.74
2019-02-23T09:35:35.306Z,86.45
2019-02-23T09:36:35.274Z,86.45
2019-02-23T09:37:35.248Z,87.21
2019-02-23T09:38:35.301Z,87.87
2019-02-23T09:39:35.222Z,87.02
2019-02-23T09:40:35.193Z,85.50
2019-02-23T09:41:35.174Z,84.84
2019-02-23T09:42:35.151Z,85.41
2019-02-23T09:43:35.153Z,85.03
2019-02-23T09:44:35.147Z,86.07
2019-02-23T09:45:35.120Z,85.88
2019-02-23T09:46:35.078Z,85.50
2019-02-23T09:47:35.077Z,85.60
2019-02-23T09:48:35.058Z,84.27
2019-02-23T09:49:35.096Z,84.27
2019-02-23T09:50:35.015Z,84.17
2019-02-23T09:51:34.989Z,84.08
2019-02-23T09:52:34.970Z,84.17
2019-02-23T09:53:34.953Z,84.36
2019-02-23T09:54:34.934Z,84.08
2019-02-23T09:55:34.928Z,84.08
2019-02-23T09:56:34.907Z,85.88
2019-02-23T09:57:34.922Z,85.78
2019-02-23T09:58:34.862Z,84.65
2019-02-23T09:59:34.857Z,84.65
2019-02-23T10:00:34.829Z,84.17
2019-02-23T10:01:34.815Z,85.22
2019-02-23T10:02:34.786Z,84.84
2019-02-23T10:03:34.769Z,84.08
2019-02-23T10:04:34.763Z,84.17
2019-02-23T10:05:34.808Z,84.17
2019-02-23T10:06:34.726Z,83.89
2019-02-23T10:07:34.957Z,84.94
2019-02-23T10:08:34.686Z,84.17
2019-02-23T10:09:34.668Z,84.17
2019-02-23T10:10:34.636Z,83.98
2019-02-23T10:11:34.651Z,84.12
2019-02-23T10:12:34.826Z,84.88
2019-02-23T10:13:34.601Z,86.87
2019-02-23T10:14:34.587Z,86.11
2019-02-23T10:15:34.564Z,83.94
2019-02-23T10:16:34.543Z,83.84
2019-02-23T10:17:34.527Z,83.84
2019-02-23T10:18:34.502Z,83.46
2019-02-23T10:19:34.481Z,83.08
2019-02-23T10:20:34.478Z,83.55
2019-02-23T10:21:34.443Z,83.46
2019-02-23T10:22:34.436Z,83.69
2019-02-23T10:23:34.417Z,83.40
2019-02-23T10:24:34.407Z,82.70
2019-02-23T10:25:34.387Z,83.22
2019-02-23T10:26:34.350Z,83.08
2019-02-23T10:27:34.350Z,83.12
2019-02-23T10:28:34.333Z,83.22
2019-02-23T10:29:34.338Z,82.17
2019-02-23T10:30:34.292Z,81.23
2019-02-23T10:31:34.269Z,81.32
2019-02-23T10:32:34.258Z,82.46
2019-02-23T10:33:34.238Z,82.65
2019-02-23T10:34:34.253Z,82.08
2019-02-23T10:35:34.216Z,82.17
2019-02-23T10:36:34.179Z,82.17
2019-02-23T10:37:34.179Z,81.70
2019-02-23T10:38:34.142Z,80.84
2019-02-23T10:39:34.124Z,81.04
2019-02-23T10:40:34.130Z,81.51
2019-02-23T10:41:34.102Z,83.40
2019-02-23T10:42:34.114Z,82.46
2019-02-23T10:43:34.074Z,81.51
2019-02-23T10:44:34.053Z,80.94
2019-02-23T10:45:34.070Z,81.41
2019-02-23T10:46:34.000Z,82.36
2019-02-23T10:47:34.003Z,83.12
2019-02-23T10:48:33.966Z,83.12
2019-02-23T10:49:33.956Z,82.17
2019-02-23T10:50:33.950Z,80.94
2019-02-23T10:51:33.946Z,80.56
2019-02-23T10:52:34.053Z,80.56
2019-02-23T10:53:33.889Z,79.80
2019-02-23T10:54:33.876Z,80.08
2019-02-23T10:55:33.857Z,80.56
2019-02-23T10:56:33.826Z,79.61
2019-02-23T10:57:33.821Z,79.99
2019-02-23T10:58:33.795Z,81.13
2019-02-23T10:59:33.776Z,82.59
2019-02-23T11:00:33.760Z,83.16
2019-02-23T11:01:33.741Z,81.36
2019-02-23T11:02:33.780Z,79.74
2019-02-23T11:03:33.725Z,77.66
2019-02-23T11:04:33.695Z,77.51
2019-02-23T11:05:33.674Z,77.89
2019-02-23T11:06:33.664Z,76.93
2019-02-23T11:07:33.642Z,76.18
2019-02-23T11:08:33.640Z,75.79
2019-02-23T11:09:33.612Z,76.08
2019-02-23T11:10:33.599Z,75.99
2019-02-23T11:11:33.584Z,75.00
2019-02-23T11:12:33.592Z,75.76
2019-02-23T11:13:33.548Z,76.71
2019-02-23T11:14:33.552Z,76.90
2019-02-23T11:15:33.513Z,78.17
2019-02-23T11:16:33.485Z,78.55
2019-02-23T11:17:33.477Z,79.03
2019-02-23T11:18:33.467Z,79.03
2019-02-23T11:19:33.474Z,79.50
2019-02-23T11:20:33.426Z,77.03
2019-02-23T11:21:33.422Z,76.27
2019-02-23T11:22:33.401Z,76.93
2019-02-23T11:23:43.451Z,77.89
2019-02-23T11:24:33.389Z,77.22
2019-02-23T11:25:33.349Z,75.51
2019-02-23T11:26:33.345Z,74.94
2019-02-23T11:27:33.323Z,75.51
2019-02-23T11:28:33.317Z,75.51
2019-02-23T11:29:33.280Z,74.85
2019-02-23T11:30:33.268Z,74.85
2019-02-23T11:31:33.238Z,75.60
2019-02-23T11:32:33.236Z,74.56
2019-02-23T11:33:33.216Z,74.56
2019-02-23T11:34:33.190Z,74.56
2019-02-23T11:35:33.216Z,75.04
2019-02-23T11:36:33.162Z,74.56
2019-02-23T11:37:33.138Z,73.80
2019-02-23T11:38:33.125Z,74.85
2019-02-23T11:39:33.282Z,73.99
2019-02-23T11:40:33.095Z,73.04
2019-02-23T11:41:33.153Z,72.38
2019-02-23T11:42:33.056Z,73.18
2019-02-23T11:43:33.042Z,73.65
2019-02-23T11:44:33.049Z,73.08
2019-02-23T11:45:33.010Z,72.22
2019-02-23T11:46:33.005Z,71.27
2019-02-23T11:47:33.012Z,71.27
2019-02-23T11:48:32.993Z,70.99
2019-02-23T11:49:32.949Z,71.08
2019-02-23T11:50:32.926Z,72.32
2019-02-23T11:51:32.930Z,72.41
2019-02-23T11:52:32.890Z,71.75
2019-02-23T11:53:32.910Z,70.04
2019-02-23T11:54:32.868Z,69.85
2019-02-23T11:55:32.858Z,69.27
2019-02-23T11:56:32.847Z,68.90
2019-02-23T11:57:32.817Z,68.46
2019-02-23T11:58:32.846Z,68.07
2019-02-23T11:59:32.788Z,67.60
2019-02-23T12:00:32.765Z,66.84
2019-02-23T12:01:32.767Z,66.46
2019-02-23T12:02:32.749Z,66.17
2019-02-23T12:03:32.766Z,65.32
2019-02-23T12:04:32.714Z,64.02
2019-02-23T12:05:32.703Z,63.26
2019-02-23T12:06:32.688Z,62.40
2019-02-23T12:07:32.663Z,62.15
2019-02-23T12:08:32.656Z,61.86
2019-02-23T12:09:32.925Z,62.24
2019-02-23T12:10:32.630Z,63.10
2019-02-23T12:11:32.616Z,61.74
2019-02-23T12:12:32.603Z,60.12
2019-02-23T12:13:32.581Z,60.31
2019-02-23T12:14:32.608Z,60.21
2019-02-23T12:15:32.550Z,59.83
2019-02-23T12:16:32.536Z,59.64
2019-02-23T12:17:32.521Z,59.74
2019-02-23T12:18:32.508Z,60.31
2019-02-23T12:19:32.536Z,62.49
2019-02-23T12:20:32.481Z,63.64
2019-02-23T12:21:32.465Z,61.58
2019-02-23T12:22:32.459Z,60.63
2019-02-23T12:23:32.446Z,59.77
2019-02-23T12:24:32.453Z,59.96
2019-02-23T12:25:32.430Z,59.67
2019-02-23T12:26:32.419Z,58.34
2019-02-23T12:27:32.393Z,58.44
2019-02-23T12:28:32.367Z,58.28
2019-02-23T12:29:32.366Z,58.94
2019-02-23T12:30:32.898Z,58.28
2019-02-23T12:31:32.347Z,57.39
2019-02-23T12:32:32.313Z,57.70
2019-02-23T12:33:32.308Z,56.46
2019-02-23T12:34:32.292Z,55.90
2019-02-23T12:35:32.348Z,56.09
2019-02-23T12:36:32.267Z,55.90
2019-02-23T12:37:32.249Z,54.56
2019-02-23T12:38:32.232Z,53.42
2019-02-23T12:39:32.493Z,52.84
2019-02-23T12:40:32.210Z,52.18
2019-02-23T12:41:32.228Z,53.04
2019-02-23T12:42:32.179Z,53.06
2019-02-23T12:43:32.167Z,52.20
2019-02-23T12:44:32.171Z,51.99
2019-02-23T12:45:32.152Z,51.70
2019-02-23T12:46:32.278Z,50.37
2019-02-23T12:47:32.121Z,49.80
2019-02-23T12:48:32.107Z,49.61
2019-02-23T12:49:32.107Z,50.09
2019-02-23T12:50:33.454Z,50.85
2019-02-23T12:51:32.087Z,51.61
2019-02-23T12:52:32.097Z,50.94